sensor_id;sensor_type;location;lat;lon;timestamp;pressure;altitude;pressure_sealevel;temperature;humidity
29907;BME280;16776;50.958;10.994;2023-01-31T00:01:05;98846.53;;;1.93;100.00
29907;BME280;16776;50.958;10.994;2023-01-31T00:03:33;98855.88;;;1.94;100.00
29907;BME280;16776;50.958;10.994;2023-01-31T00:06:11;98856.78;;;2.00;100.00
29907;BME280;16776;50.958;10.994;2023-01-31T00:08:38;98853.31;;;1.94;100.00
29907;BME280;16776;50.958;10.994;2023-01-31T00:11:05;98844.00;;;1.93;100.00
29907;BME280;16776;50.958;10.994;2023-01-31T00:13:32;98863.50;;;1.94;100.00
29907;BME280;16776;50.958;10.994;2023-01-31T00:15:59;98858.41;;;1.94;100.00
29907;BME280;16776;50.958;10.994;2023-01-31T00:18:25;98850.81;;;1.95;100.00
29907;BME280;16776;50.958;10.994;2023-01-31T00:20:53;98853.38;;;1.97;100.00
29907;BME280;16776;50.958;10.994;2023-01-31T00:23:20;98860.13;;;1.95;100.00
29907;BME280;16776;50.958;10.994;2023-01-31T00:25:46;98855.88;;;1.95;100.00
29907;BME280;16776;50.958;10.994;2023-01-31T00:28:13;98856.75;;;1.96;100.00
29907;BME280;16776;50.958;10.994;2023-01-31T00:30:41;98865.22;;;1.98;100.00
29907;BME280;16776;50.958;10.994;2023-01-31T00:33:07;98868.63;;;1.97;100.00
29907;BME280;16776;50.958;10.994;2023-01-31T00:35:37;98870.31;;;1.99;100.00
29907;BME280;16776;50.958;10.994;2023-01-31T00:38:06;98867.78;;;1.99;100.00
29907;BME280;16776;50.958;10.994;2023-01-31T00:40:33;98866.06;;;1.97;100.00
29907;BME280;16776;50.958;10.994;2023-01-31T00:43:00;98861.00;;;1.97;100.00
29907;BME280;16776;50.958;10.994;2023-01-31T00:45:26;98858.47;;;1.97;100.00
29907;BME280;16776;50.958;10.994;2023-01-31T00:47:53;98864.38;;;1.96;100.00
29907;BME280;16776;50.958;10.994;2023-01-31T00:50:19;98868.63;;;1.97;100.00
29907;BME280;16776;50.958;10.994;2023-01-31T00:52:46;98860.97;;;1.95;100.00
29907;BME280;16776;50.958;10.994;2023-01-31T00:55:14;98861.81;;;1.96;100.00
29907;BME280;16776;50.958;10.994;2023-01-31T00:57:41;98869.41;;;1.94;100.00
29907;BME280;16776;50.958;10.994;2023-01-31T01:00:08;98859.13;;;1.85;100.00
29907;BME280;16776;50.958;10.994;2023-01-31T01:02:35;98872.78;;;1.93;100.00
29907;BME280;16776;50.958;10.994;2023-01-31T01:05:02;98861.78;;;1.91;100.00
29907;BME280;16776;50.958;10.994;2023-01-31T01:07:28;98875.31;;;1.92;100.00
29907;BME280;16776;50.958;10.994;2023-01-31T01:09:55;98875.31;;;1.92;100.00
29907;BME280;16776;50.958;10.994;2023-01-31T01:12:23;98886.31;;;1.92;100.00
29907;BME280;16776;50.958;10.994;2023-01-31T01:14:50;98889.69;;;1.90;100.00
29907;BME280;16776;50.958;10.994;2023-01-31T01:17:16;98897.28;;;1.88;100.00
29907;BME280;16776;50.958;10.994;2023-01-31T01:19:43;98905.72;;;1.87;100.00
29907;BME280;16776;50.958;10.994;2023-01-31T01:22:09;98900.69;;;1.89;100.00
29907;BME280;16776;50.958;10.994;2023-01-31T01:24:40;98909.16;;;1.89;100.00
29907;BME280;16776;50.958;10.994;2023-01-31T01:27:07;98908.28;;;1.89;100.00
29907;BME280;16776;50.958;10.994;2023-01-31T01:29:37;98912.56;;;1.91;100.00
29907;BME280;16776;50.958;10.994;2023-01-31T01:32:04;98910.00;;;1.90;100.00
29907;BME280;16776;50.958;10.994;2023-01-31T01:34:32;98893.91;;;1.89;100.00
29907;BME280;16776;50.958;10.994;2023-01-31T01:36:59;98903.22;;;1.89;100.00
29907;BME280;16776;50.958;10.994;2023-01-31T01:39:25;98897.31;;;1.90;100.00
29907;BME280;16776;50.958;10.994;2023-01-31T01:41:54;98894.72;;;1.87;100.00
29907;BME280;16776;50.958;10.994;2023-01-31T01:44:45;98889.78;;;1.99;100.00
29907;BME280;16776;50.958;10.994;2023-01-31T01:47:21;98886.38;;;1.95;100.00
29907;BME280;16776;50.958;10.994;2023-01-31T01:49:51;98891.41;;;1.92;100.00
29907;BME280;16776;50.958;10.994;2023-01-31T01:52:20;98887.16;;;1.93;100.00
29907;BME280;16776;50.958;10.994;2023-01-31T01:54:51;98885.50;;;1.95;100.00
29907;BME280;16776;50.958;10.994;2023-01-31T01:57:22;98891.44;;;1.95;100.00
29907;BME280;16776;50.958;10.994;2023-01-31T01:59:54;98897.38;;;1.96;100.00
29907;BME280;16776;50.958;10.994;2023-01-31T02:02:24;98892.25;;;1.93;100.00
29907;BME280;16776;50.958;10.994;2023-01-31T02:04:51;98898.19;;;1.93;100.00
29907;BME280;16776;50.958;10.994;2023-01-31T02:07:18;98899.03;;;1.94;100.00
29907;BME280;16776;50.958;10.994;2023-01-31T02:09:51;98902.41;;;1.93;100.00
29907;BME280;16776;50.958;10.994;2023-01-31T02:12:20;98902.41;;;1.93;100.00
29907;BME280;16776;50.958;10.994;2023-01-31T02:14:47;98913.41;;;1.92;100.00
29907;BME280;16776;50.958;10.994;2023-01-31T02:17:17;98910.06;;;1.94;100.00
29907;BME280;16776;50.958;10.994;2023-01-31T02:19:56;98916.84;;;1.95;100.00
29907;BME280;16776;50.958;10.994;2023-01-31T02:22:29;98917.66;;;1.93;100.00
29907;BME280;16776;50.958;10.994;2023-01-31T02:28:18;98920.22;;;1.94;100.00
29907;BME280;16776;50.958;10.994;2023-01-31T02:33:59;98943.88;;;1.90;100.00
29907;BME280;16776;50.958;10.994;2023-01-31T02:36:39;98943.81;;;1.87;100.00
29907;BME280;16776;50.958;10.994;2023-01-31T02:39:20;98947.22;;;1.88;100.00
29907;BME280;16776;50.958;10.994;2023-01-31T02:41:56;98947.16;;;1.83;100.00
29907;BME280;16776;50.958;10.994;2023-01-31T02:44:32;98957.28;;;1.78;100.00
29907;BME280;16776;50.958;10.994;2023-01-31T02:47:29;98961.50;;;1.78;100.00
29907;BME280;16776;50.958;10.994;2023-01-31T02:50:02;98963.94;;;1.73;100.00
29907;BME280;16776;50.958;10.994;2023-01-31T02:52:34;98978.31;;;1.71;100.00
29907;BME280;16776;50.958;10.994;2023-01-31T02:55:08;98966.47;;;1.70;100.00
29907;BME280;16776;50.958;10.994;2023-01-31T02:57:56;98979.09;;;1.67;100.00
29907;BME280;16776;50.958;10.994;2023-01-31T03:00:24;98980.78;;;1.67;100.00
29907;BME280;16776;50.958;10.994;2023-01-31T03:02:51;98978.25;;;1.67;100.00
29907;BME280;16776;50.958;10.994;2023-01-31T03:05:19;98973.19;;;1.68;100.00
29907;BME280;16776;50.958;10.994;2023-01-31T03:07:50;98968.91;;;1.66;100.00
29907;BME280;16776;50.958;10.994;2023-01-31T03:10:26;98981.72;;;1.73;100.00
29907;BME280;16776;50.958;10.994;2023-01-31T03:13:07;98985.97;;;1.74;100.00
29907;BME280;16776;50.958;10.994;2023-01-31T03:15:54;98982.63;;;1.77;100.00
29907;BME280;16776;50.958;10.994;2023-01-31T03:18:43;98988.50;;;1.74;100.00
29907;BME280;16776;50.958;10.994;2023-01-31T03:21:16;98997.00;;;1.76;100.00
29907;BME280;16776;50.958;10.994;2023-01-31T03:23:49;99004.66;;;1.78;100.00
29907;BME280;16776;50.958;10.994;2023-01-31T03:26:19;98993.66;;;1.77;100.00
29907;BME280;16776;50.958;10.994;2023-01-31T03:28:47;98991.97;;;1.79;100.00
29907;BME280;16776;50.958;10.994;2023-01-31T03:31:21;99000.47;;;1.81;100.00
29907;BME280;16776;50.958;10.994;2023-01-31T03:33:51;98999.66;;;1.84;100.00
29907;BME280;16776;50.958;10.994;2023-01-31T03:36:29;98984.47;;;1.87;100.00
29907;BME280;16776;50.958;10.994;2023-01-31T03:39:05;99000.56;;;1.88;100.00
29907;BME280;16776;50.958;10.994;2023-01-31T03:41:42;98997.16;;;1.87;100.00
29907;BME280;16776;50.958;10.994;2023-01-31T03:44:14;98996.31;;;1.88;100.00
29907;BME280;16776;50.958;10.994;2023-01-31T03:46:48;98992.09;;;1.89;100.00
29907;BME280;16776;50.958;10.994;2023-01-31T03:49:17;98983.50;;;1.77;100.00
29907;BME280;16776;50.958;10.994;2023-01-31T03:51:52;98993.84;;;1.93;100.00
29907;BME280;16776;50.958;10.994;2023-01-31T03:54:22;98997.22;;;1.92;100.00
29907;BME280;16776;50.958;10.994;2023-01-31T03:56:53;98994.66;;;1.90;100.00
29907;BME280;16776;50.958;10.994;2023-01-31T03:59:25;98996.34;;;1.90;100.00
29907;BME280;16776;50.958;10.994;2023-01-31T04:01:55;98977.66;;;1.86;100.00
29907;BME280;16776;50.958;10.994;2023-01-31T04:04:28;98986.97;;;1.85;100.00
29907;BME280;16776;50.958;10.994;2023-01-31T04:07:00;98993.72;;;1.83;100.00
29907;BME280;16776;50.958;10.994;2023-01-31T04:09:27;98989.41;;;1.79;100.00
29907;BME280;16776;50.958;10.994;2023-01-31T04:11:53;98985.19;;;1.78;100.00
29907;BME280;16776;50.958;10.994;2023-01-31T04:14:24;98992.78;;;1.77;100.00
29907;BME280;16776;50.958;10.994;2023-01-31T04:16:50;98989.38;;;1.75;100.00
29907;BME280;16776;50.958;10.994;2023-01-31T04:19:17;98987.63;;;1.72;100.00
29907;BME280;16776;50.958;10.994;2023-01-31T04:21:43;98982.53;;;1.71;100.00
29907;BME280;16776;50.958;10.994;2023-01-31T04:24:11;98979.19;;;1.72;100.00
29907;BME280;16776;50.958;10.994;2023-01-31T04:26:38;98983.34;;;1.68;100.00
29907;BME280;16776;50.958;10.994;2023-01-31T04:29:05;98985.00;;;1.66;100.00
29907;BME280;16776;50.958;10.994;2023-01-31T04:31:31;98986.69;;;1.64;100.00
29907;BME280;16776;50.958;10.994;2023-01-31T04:33:58;98981.53;;;1.61;100.00
29907;BME280;16776;50.958;10.994;2023-01-31T04:36:24;98986.59;;;1.60;100.00
29907;BME280;16776;50.958;10.994;2023-01-31T04:38:51;98978.16;;;1.59;100.00
29907;BME280;16776;50.958;10.994;2023-01-31T04:41:19;98984.91;;;1.60;100.00
29907;BME280;16776;50.958;10.994;2023-01-31T04:43:46;98990.00;;;1.59;100.00
29907;BME280;16776;50.958;10.994;2023-01-31T04:46:12;98988.31;;;1.59;100.00
29907;BME280;16776;50.958;10.994;2023-01-31T04:48:39;98993.38;;;1.59;100.00
29907;BME280;16776;50.958;10.994;2023-01-31T04:51:05;98987.44;;;1.59;100.00
29907;BME280;16776;50.958;10.994;2023-01-31T04:53:32;98984.03;;;1.57;100.00
29907;BME280;16776;50.958;10.994;2023-01-31T04:56:01;98990.00;;;1.59;100.00
29907;BME280;16776;50.958;10.994;2023-01-31T04:58:28;98990.88;;;1.62;100.00
29907;BME280;16776;50.958;10.994;2023-01-31T05:00:55;98987.44;;;1.60;100.00
29907;BME280;16776;50.958;10.994;2023-01-31T05:03:22;98983.22;;;1.61;100.00
29907;BME280;16776;50.958;10.994;2023-01-31T05:05:49;98986.63;;;1.61;100.00
29907;BME280;16776;50.958;10.994;2023-01-31T05:08:16;98973.06;;;1.59;100.00
29907;BME280;16776;50.958;10.994;2023-01-31T05:10:42;98971.38;;;1.58;100.00
29907;BME280;16776;50.958;10.994;2023-01-31T05:13:09;98978.97;;;1.58;100.00
29907;BME280;16776;50.958;10.994;2023-01-31T05:15:38;98980.69;;;1.59;100.00
29907;BME280;16776;50.958;10.994;2023-01-31T05:18:05;98981.47;;;1.55;100.00
29907;BME280;16776;50.958;10.994;2023-01-31T05:20:34;98976.38;;;1.55;100.00
29907;BME280;16776;50.958;10.994;2023-01-31T05:23:03;98983.09;;;1.50;100.00
29907;BME280;16776;50.958;10.994;2023-01-31T05:25:30;98987.28;;;1.48;100.00
29907;BME280;16776;50.958;10.994;2023-01-31T05:27:56;98991.50;;;1.46;100.00
29907;BME280;16776;50.958;10.994;2023-01-31T05:30:25;98994.84;;;1.45;100.00
29907;BME280;16776;50.958;10.994;2023-01-31T05:32:53;98998.22;;;1.44;100.00
29907;BME280;16776;50.958;10.994;2023-01-31T05:35:20;98991.41;;;1.40;100.00
29907;BME280;16776;50.958;10.994;2023-01-31T05:37:46;98998.97;;;1.38;100.00
29907;BME280;16776;50.958;10.994;2023-01-31T05:40:14;98994.75;;;1.39;100.00
29907;BME280;16776;50.958;10.994;2023-01-31T05:42:41;99001.44;;;1.35;100.00
29907;BME280;16776;50.958;10.994;2023-01-31T05:45:09;98999.75;;;1.33;100.00
29907;BME280;16776;50.958;10.994;2023-01-31T05:47:36;98998.84;;;1.31;100.00
29907;BME280;16776;50.958;10.994;2023-01-31T05:50:05;99002.28;;;1.33;100.00
29907;BME280;16776;50.958;10.994;2023-01-31T05:52:35;98998.19;;;1.42;100.00
29907;BME280;16776;50.958;10.994;2023-01-31T05:55:01;99007.66;;;1.54;100.00
29907;BME280;16776;50.958;10.994;2023-01-31T05:57:28;98998.56;;;1.68;100.00
29907;BME280;16776;50.958;10.994;2023-01-31T05:59:54;99004.66;;;1.78;100.00
29907;BME280;16776;50.958;10.994;2023-01-31T06:02:21;99010.63;;;1.81;100.00
29907;BME280;16776;50.958;10.994;2023-01-31T06:04:48;98983.31;;;1.65;100.00
29907;BME280;16776;50.958;10.994;2023-01-31T06:07:16;99008.94;;;1.82;100.00
29907;BME280;16776;50.958;10.994;2023-01-31T06:09:42;99014.81;;;1.78;100.00
29907;BME280;16776;50.958;10.994;2023-01-31T06:12:11;99016.47;;;1.76;100.00
29907;BME280;16776;50.958;10.994;2023-01-31T06:14:38;99018.94;;;1.71;100.00
29907;BME280;16776;50.958;10.994;2023-01-31T06:17:05;99021.41;;;1.67;100.00
29907;BME280;16776;50.958;10.994;2023-01-31T06:19:31;99015.44;;;1.63;100.00
29907;BME280;16776;50.958;10.994;2023-01-31T06:21:58;99017.09;;;1.61;100.00
29907;BME280;16776;50.958;10.994;2023-01-31T06:24:26;99022.13;;;1.60;100.00
29907;BME280;16776;50.958;10.994;2023-01-31T06:26:52;99032.22;;;1.55;100.00
29907;BME280;16776;50.958;10.994;2023-01-31T06:29:19;99033.00;;;1.51;100.00
29907;BME280;16776;50.958;10.994;2023-01-31T06:31:45;99031.31;;;1.50;100.00
29907;BME280;16776;50.958;10.994;2023-01-31T06:34:12;99030.41;;;1.48;100.00
29907;BME280;16776;50.958;10.994;2023-01-31T06:36:39;99038.84;;;1.47;100.00
29907;BME280;16776;50.958;10.994;2023-01-31T06:39:05;99027.00;;;1.46;100.00
29907;BME280;16776;50.958;10.994;2023-01-31T06:41:33;99031.25;;;1.47;100.00
29907;BME280;16776;50.958;10.994;2023-01-31T06:44:00;99033.78;;;1.46;100.00
29907;BME280;16776;50.958;10.994;2023-01-31T06:46:26;99033.78;;;1.46;100.00
29907;BME280;16776;50.958;10.994;2023-01-31T06:48:53;99032.91;;;1.47;100.00
29907;BME280;16776;50.958;10.994;2023-01-31T06:51:19;99024.47;;;1.46;100.00
29907;BME280;16776;50.958;10.994;2023-01-31T06:53:46;99026.16;;;1.47;100.00
29907;BME280;16776;50.958;10.994;2023-01-31T06:56:13;99023.63;;;1.47;100.00
29907;BME280;16776;50.958;10.994;2023-01-31T06:58:41;99031.28;;;1.49;100.00
29907;BME280;16776;50.958;10.994;2023-01-31T07:01:09;99032.13;;;1.49;100.00
29907;BME280;16776;50.958;10.994;2023-01-31T07:03:36;99041.41;;;1.49;100.00
29907;BME280;16776;50.958;10.994;2023-01-31T07:06:03;99044.00;;;1.50;100.00
29907;BME280;16776;50.958;10.994;2023-01-31T07:08:30;99048.25;;;1.51;100.00
29907;BME280;16776;50.958;10.994;2023-01-31T07:10:57;99054.19;;;1.53;100.00
29907;BME280;16776;50.958;10.994;2023-01-31T07:13:26;99048.28;;;1.53;100.00
29907;BME280;16776;50.958;10.994;2023-01-31T07:15:54;99050.88;;;1.57;100.00
29907;BME280;16776;50.958;10.994;2023-01-31T07:18:20;99038.16;;;1.56;100.00
29907;BME280;16776;50.958;10.994;2023-01-31T07:20:47;99040.72;;;1.57;100.00
29907;BME280;16776;50.958;10.994;2023-01-31T07:23:13;99039.88;;;1.57;100.00
29907;BME280;16776;50.958;10.994;2023-01-31T07:25:40;99031.44;;;1.58;100.00
29907;BME280;16776;50.958;10.994;2023-01-31T07:28:07;99034.81;;;1.58;100.00
29907;BME280;16776;50.958;10.994;2023-01-31T07:30:33;99034.00;;;1.59;100.00
29907;BME280;16776;50.958;10.994;2023-01-31T07:33:01;99034.00;;;1.61;100.00
29907;BME280;16776;50.958;10.994;2023-01-31T07:35:28;99026.38;;;1.59;100.00
29907;BME280;16776;50.958;10.994;2023-01-31T07:37:54;99030.63;;;1.62;100.00
29907;BME280;16776;50.958;10.994;2023-01-31T07:40:21;99028.09;;;1.62;100.00
29907;BME280;16776;50.958;10.994;2023-01-31T07:42:48;99023.88;;;1.62;100.00
29907;BME280;16776;50.958;10.994;2023-01-31T07:45:15;99030.66;;;1.63;100.00
29907;BME280;16776;50.958;10.994;2023-01-31T07:47:41;99027.31;;;1.64;100.00
29907;BME280;16776;50.958;10.994;2023-01-31T07:50:10;99032.41;;;1.67;100.00
29907;BME280;16776;50.958;10.994;2023-01-31T07:52:37;99030.69;;;1.65;100.00
29907;BME280;16776;50.958;10.994;2023-01-31T07:55:04;99026.47;;;1.65;100.00
29907;BME280;16776;50.958;10.994;2023-01-31T07:57:31;99021.41;;;1.65;100.00
29907;BME280;16776;50.958;10.994;2023-01-31T07:59:57;99012.06;;;1.66;100.00
29907;BME280;16776;50.958;10.994;2023-01-31T08:02:24;99003.63;;;1.67;100.00
29907;BME280;16776;50.958;10.994;2023-01-31T08:05:10;99006.22;;;1.70;100.00
29907;BME280;16776;50.958;10.994;2023-01-31T08:07:36;99003.69;;;1.70;100.00
29907;BME280;16776;50.958;10.994;2023-01-31T08:10:03;99003.72;;;1.71;100.00
29907;BME280;16776;50.958;10.994;2023-01-31T08:12:30;99003.72;;;1.73;100.00
29907;BME280;16776;50.958;10.994;2023-01-31T08:14:57;98999.50;;;1.73;100.00
29907;BME280;16776;50.958;10.994;2023-01-31T08:17:23;99007.13;;;1.75;100.00
29907;BME280;16776;50.958;10.994;2023-01-31T08:19:50;99005.47;;;1.75;100.00
29907;BME280;16776;50.958;10.994;2023-01-31T08:22:18;99007.19;;;1.78;100.00
29907;BME280;16776;50.958;10.994;2023-01-31T08:24:44;99002.13;;;1.78;100.00
29907;BME280;16776;50.958;10.994;2023-01-31T08:27:11;99010.59;;;1.78;100.00
29907;BME280;16776;50.958;10.994;2023-01-31T08:29:37;99010.59;;;1.78;100.00
29907;BME280;16776;50.958;10.994;2023-01-31T08:32:04;99003.84;;;1.80;100.00
29907;BME280;16776;50.958;10.994;2023-01-31T08:34:31;98987.78;;;1.81;100.00
29907;BME280;16776;50.958;10.994;2023-01-31T08:36:58;98985.25;;;1.83;100.00
29907;BME280;16776;50.958;10.994;2023-01-31T08:39:26;98981.91;;;1.87;100.00
29907;BME280;16776;50.958;10.994;2023-01-31T08:41:53;98980.22;;;1.88;100.00
29907;BME280;16776;50.958;10.994;2023-01-31T08:44:19;98974.34;;;1.90;100.00
29907;BME280;16776;50.958;10.994;2023-01-31T08:46:46;98979.44;;;1.92;100.00
29907;BME280;16776;50.958;10.994;2023-01-31T08:49:12;98975.22;;;1.94;100.00
29907;BME280;16776;50.958;10.994;2023-01-31T08:51:39;98971.88;;;1.95;100.00
29907;BME280;16776;50.958;10.994;2023-01-31T08:54:06;98969.34;;;1.96;100.00
29907;BME280;16776;50.958;10.994;2023-01-31T08:56:36;98961.72;;;1.98;100.00
29907;BME280;16776;50.958;10.994;2023-01-31T08:59:02;98960.06;;;1.97;100.00
29907;BME280;16776;50.958;10.994;2023-01-31T09:01:29;98960.06;;;2.00;100.00
29907;BME280;16776;50.958;10.994;2023-01-31T09:03:56;98951.63;;;2.01;100.00
29907;BME280;16776;50.958;10.994;2023-01-31T09:06:24;98945.75;;;2.03;100.00
29907;BME280;16776;50.958;10.994;2023-01-31T09:08:54;98943.25;;;2.08;100.00
29907;BME280;16776;50.958;10.994;2023-01-31T09:11:20;98932.22;;;2.07;100.00
29907;BME280;16776;50.958;10.994;2023-01-31T09:13:48;98940.75;;;2.12;100.00
29907;BME280;16776;50.958;10.994;2023-01-31T09:16:16;98925.41;;;2.03;100.00
29907;BME280;16776;50.958;10.994;2023-01-31T09:18:43;98936.53;;;2.13;100.00
29907;BME280;16776;50.958;10.994;2023-01-31T09:21:12;98942.53;;;2.16;100.00
29907;BME280;16776;50.958;10.994;2023-01-31T09:23:40;98940.81;;;2.15;100.00
29907;BME280;16776;50.958;10.994;2023-01-31T09:26:07;98939.94;;;2.15;100.00
29907;BME280;16776;50.958;10.994;2023-01-31T09:28:34;98936.59;;;2.16;100.00
29907;BME280;16776;50.958;10.994;2023-01-31T09:31:06;98938.34;;;2.21;100.00
29907;BME280;16776;50.958;10.994;2023-01-31T09:33:33;98938.38;;;2.23;100.00
29907;BME280;16776;50.958;10.994;2023-01-31T09:36:03;98937.41;;;2.15;100.00
29907;BME280;16776;50.958;10.994;2023-01-31T09:38:30;98928.03;;;2.11;100.00
29907;BME280;16776;50.958;10.994;2023-01-31T09:40:59;98928.97;;;2.19;100.00
29907;BME280;16776;50.958;10.994;2023-01-31T09:43:28;98923.91;;;2.20;100.00
29907;BME280;16776;50.958;10.994;2023-01-31T09:45:59;98919.72;;;2.24;100.00
29907;BME280;16776;50.958;10.994;2023-01-31T09:48:31;98913.81;;;2.27;100.00
29907;BME280;16776;50.958;10.994;2023-01-31T09:51:00;98927.34;;;2.24;100.00
29907;BME280;16776;50.958;10.994;2023-01-31T09:53:30;98918.91;;;2.27;100.00
29907;BME280;16776;50.958;10.994;2023-01-31T09:56:09;98913.88;;;2.31;100.00
29907;BME280;16776;50.958;10.994;2023-01-31T09:58:43;98917.28;;;2.33;100.00
29907;BME280;16776;50.958;10.994;2023-01-31T10:01:18;98911.38;;;2.37;100.00
29907;BME280;16776;50.958;10.994;2023-01-31T10:04:00;98908.84;;;2.37;100.00
29907;BME280;16776;50.958;10.994;2023-01-31T10:06:35;98904.63;;;2.38;100.00
29907;BME280;16776;50.958;10.994;2023-01-31T10:09:09;98902.94;;;2.38;100.00
29907;BME280;16776;50.958;10.994;2023-01-31T10:11:45;98901.25;;;2.40;100.00
29907;BME280;16776;50.958;10.994;2023-01-31T10:14:20;98897.91;;;2.44;100.00
29907;BME280;16776;50.958;10.994;2023-01-31T10:16:59;98890.25;;;2.40;100.00
29907;BME280;16776;50.958;10.994;2023-01-31T10:19:32;98892.03;;;2.50;100.00
29907;BME280;16776;50.958;10.994;2023-01-31T10:22:04;98894.59;;;2.51;100.00
29907;BME280;16776;50.958;10.994;2023-01-31T10:24:34;98894.66;;;2.57;100.00
29907;BME280;16776;50.958;10.994;2023-01-31T10:27:06;98884.47;;;2.54;100.00
29907;BME280;16776;50.958;10.994;2023-01-31T10:29:39;98881.06;;;2.55;100.00
29907;BME280;16776;50.958;10.994;2023-01-31T10:32:13;98880.28;;;2.59;100.00
29907;BME280;16776;50.958;10.994;2023-01-31T10:34:44;98863.34;;;2.61;100.00
29907;BME280;16776;50.958;10.994;2023-01-31T10:37:17;98854.88;;;2.64;100.00
29907;BME280;16776;50.958;10.994;2023-01-31T10:39:49;98846.44;;;2.67;100.00
29907;BME280;16776;50.958;10.994;2023-01-31T10:42:25;98849.88;;;2.73;100.00
29907;BME280;16776;50.958;10.994;2023-01-31T10:44:59;98848.19;;;2.77;100.00
29907;BME280;16776;50.958;10.994;2023-01-31T10:47:30;98838.03;;;2.77;100.00
29907;BME280;16776;50.958;10.994;2023-01-31T10:50:00;98841.47;;;2.80;100.00
29907;BME280;16776;50.958;10.994;2023-01-31T10:52:41;98855.06;;;2.85;100.00
29907;BME280;16776;50.958;10.994;2023-01-31T10:55:27;98843.19;;;2.86;100.00
29907;BME280;16776;50.958;10.994;2023-01-31T10:57:57;98840.59;;;2.78;100.00
29907;BME280;16776;50.958;10.994;2023-01-31T11:00:27;98846.56;;;2.83;100.00
29907;BME280;16776;50.958;10.994;2023-01-31T11:02:55;98824.53;;;2.81;100.00
29907;BME280;16776;50.958;10.994;2023-01-31T11:05:25;98816.03;;;2.82;100.00
29907;BME280;16776;50.958;10.994;2023-01-31T11:07:52;98812.63;;;2.78;100.00
29907;BME280;16776;50.958;10.994;2023-01-31T11:10:23;98818.56;;;2.80;100.00
29907;BME280;16776;50.958;10.994;2023-01-31T11:12:54;98803.31;;;2.80;100.00
29907;BME280;16776;50.958;10.994;2023-01-31T11:15:25;98811.75;;;2.78;100.00
29907;BME280;16776;50.958;10.994;2023-01-31T11:17:58;98793.03;;;2.67;100.00
29907;BME280;16776;50.958;10.994;2023-01-31T11:20:29;98809.16;;;2.70;100.00
29907;BME280;16776;50.958;10.994;2023-01-31T11:22:58;98812.56;;;2.72;100.00
29907;BME280;16776;50.958;10.994;2023-01-31T11:25:28;98808.34;;;2.73;100.00
29907;BME280;16776;50.958;10.994;2023-01-31T11:27:58;98799.03;;;2.73;100.00
29907;BME280;16776;50.958;10.994;2023-01-31T11:30:27;98781.22;;;2.72;100.00
29907;BME280;16776;50.958;10.994;2023-01-31T11:32:55;98781.22;;;2.72;100.00
29907;BME280;16776;50.958;10.994;2023-01-31T11:35:25;98751.53;;;2.72;100.00
29907;BME280;16776;50.958;10.994;2023-01-31T11:37:55;98771.03;;;2.72;100.00
29907;BME280;16776;50.958;10.994;2023-01-31T11:40:27;98762.56;;;2.73;100.00
29907;BME280;16776;50.958;10.994;2023-01-31T11:42:56;98748.13;;;2.67;100.00
29907;BME280;16776;50.958;10.994;2023-01-31T11:45:25;98737.09;;;2.67;100.00
29907;BME280;16776;50.958;10.994;2023-01-31T11:47:54;98752.38;;;2.70;100.00
29907;BME280;16776;50.958;10.994;2023-01-31T11:50:23;98734.53;;;2.65;100.00
29907;BME280;16776;50.958;10.994;2023-01-31T11:52:57;98726.94;;;2.67;100.00
29907;BME280;16776;50.958;10.994;2023-01-31T11:55:25;98719.25;;;2.62;100.00
29907;BME280;16776;50.958;10.994;2023-01-31T11:57:55;98715.03;;;2.64;100.00
29907;BME280;16776;50.958;10.994;2023-01-31T12:00:25;98715.88;;;2.63;100.00
29907;BME280;16776;50.958;10.994;2023-01-31T12:02:58;98693.00;;;2.64;100.00
29907;BME280;16776;50.958;10.994;2023-01-31T12:05:33;98653.94;;;2.46;100.00
29907;BME280;16776;50.958;10.994;2023-01-31T12:08:03;98677.72;;;2.58;100.00
29907;BME280;16776;50.958;10.994;2023-01-31T12:10:32;98670.91;;;2.48;100.00
29907;BME280;16776;50.958;10.994;2023-01-31T12:13:01;98679.34;;;2.47;100.00
29907;BME280;16776;50.958;10.994;2023-01-31T12:15:28;98671.78;;;2.55;100.00
29907;BME280;16776;50.958;10.994;2023-01-31T12:17:57;98661.63;;;2.55;100.00
29907;BME280;16776;50.958;10.994;2023-01-31T12:20:32;98661.63;;;2.59;100.00
29907;BME280;16776;50.958;10.994;2023-01-31T12:23:23;98658.25;;;2.62;100.00
29907;BME280;16776;50.958;10.994;2023-01-31T12:26:03;98646.38;;;2.59;100.00
29907;BME280;16776;50.958;10.994;2023-01-31T12:28:36;98628.59;;;2.59;100.00
29907;BME280;16776;50.958;10.994;2023-01-31T12:31:24;98593.84;;;2.63;100.00
29907;BME280;16776;50.958;10.994;2023-01-31T12:34:13;98620.13;;;2.63;100.00
29907;BME280;16776;50.958;10.994;2023-01-31T12:36:54;98625.19;;;2.63;100.00
29907;BME280;16776;50.958;10.994;2023-01-31T12:39:40;98632.00;;;2.66;100.00
29907;BME280;16776;50.958;10.994;2023-01-31T12:42:20;98628.63;;;2.65;100.00
29907;BME280;16776;50.958;10.994;2023-01-31T12:44:55;98620.13;;;2.65;100.00
29907;BME280;16776;50.958;10.994;2023-01-31T12:47:39;98628.66;;;2.72;100.00
29907;BME280;16776;50.958;10.994;2023-01-31T12:50:31;98626.94;;;2.75;100.00
29907;BME280;16776;50.958;10.994;2023-01-31T12:53:26;98616.78;;;2.75;100.00
29907;BME280;16776;50.958;10.994;2023-01-31T12:56:08;98608.31;;;2.72;100.00
29907;BME280;16776;50.958;10.994;2023-01-31T12:58:45;98596.44;;;2.71;100.00
29907;BME280;16776;50.958;10.994;2023-01-31T13:01:17;98593.03;;;2.72;100.00
29907;BME280;16776;50.958;10.994;2023-01-31T13:04:08;98582.91;;;2.78;100.00
29907;BME280;16776;50.958;10.994;2023-01-31T13:06:43;98595.59;;;2.72;100.00
29907;BME280;16776;50.958;10.994;2023-01-31T13:09:17;98600.69;;;2.73;100.00
29907;BME280;16776;50.958;10.994;2023-01-31T13:11:49;98553.16;;;2.54;100.00